New Harbor, ME

43° 52' 34"N, 69° 29' 40"W, Elevation 65 ft.
Eastern Time

Hourly observations for the last 72 hours

Date Time Temperature (°F) Humi-
dity

(%)
Wind
(mph)
Pressure Rain (in) Sun
(W/m2)
ET
(in)
Air Dew 6 Hour 1 Hr 3 Hr 6 Hr Day
Alt
(in)
Sea
Level

(mb)
Max Min
30 02:00 61.7 60.8 62.3 61.1 97 S 1 G 6 29.72 1006.6 0.00 0 0.000
30 01:00 61.7 60.8 97 SSE 1 G 9 29.76 1007.9 0.00 0 0.000
30 00:00 61.8 60.9 97 S 6 G 15 29.81 1009.4 0.01 0 0.035
29 23:00 62.1 61.2 97 S 8 G 16 29.82 1009.8 0.01 0 0.035
29 22:00 61.2 60.1 96 SSE 2 G 7 29.84 1010.5 0.01 0 0.035
29 21:00 61.3 60.4 97 S 2 G 5 29.83 1010.3 0.01 0 0.035
29 20:00 61.6 60.4 65.2 61.1 96 S 2 G 7 29.84 1010.5 0.01 0 0.035
29 19:00 61.7 60.5 96 S 0 G 1 29.83 1010.2 0.01 0 0.035
29 18:00 61.9 60.7 96 SSE 0 G 3 29.84 1010.5 0.01 12 0.034
29 17:00 63.1 61.6 95 SE 1 G 3 29.84 1010.5 0.01 35 0.032
29 16:00 62.9 61.4 95 NE 0 G 2 29.84 1010.4 0.01 107 0.029
29 15:00 64.4 62.6 94 Calm 29.85 1010.8 0.01 137 0.025
29 14:00 64.5 63.0 66.0 62.0 95 Calm 29.86 1011.3 0.01 156 0.021
29 13:00 63.1 61.9 96 Calm 29.90 1012.5 0.01 165 0.017
29 12:00 63.0 62.1 97 SE 0 G 1 29.91 1012.8 0.01 169 0.011
29 11:00 64.0 63.1 97 W 3 G 7 29.92 1013.2 0.01 229 0.007
29 10:00 63.9 63.0 97 S 3 G 7 29.93 1013.7 0.01 218 0.003
29 09:00 62.7 61.8 97 WSW 2 G 5 29.93 1013.6 0.01 195 0.001
29 08:00 62.2 61.3 63.2 61.0 97 SSE 5 G 8 29.91 1013.0 0.01 0.01 60 0.000
29 07:00 61.3 60.4 97 S 1 G 6 29.93 1013.5 0.01 0 0.000
29 06:00 61.5 60.6 97 SW 1 G 9 29.91 1012.9 0.01 0 0.000
29 05:00 61.9 61.0 97 WSW 2 G 7 29.92 1013.2 0.01 0.01 0.01 0 0.000
29 04:00 62.1 61.2 97 SSW 2 G 8 29.91 1013.0 0.00 0 0.000
29 03:00 61.8 60.9 97 S 2 G 6 29.91 1012.9 0.00 0 0.000
29 02:00 63.2 62.3 64.1 61.8 97 SSW 5 G 10 29.92 1013.1 0.00 0 0.000
29 01:00 63.8 62.9 97 S 7 G 12 29.91 1012.9 0.00 0 0.000
29 00:00 62.1 61.2 97 S 3 G 9 29.92 1013.1 0.01 0 0.029
28 23:00 63.5 62.3 96 S 5 G 21 29.92 1013.1 0.01 0 0.029
28 22:00 62.5 61.3 96 S 6 G 18 29.92 1013.1 0.01 0 0.029
28 21:00 62.5 61.3 96 S 6 G 16 29.90 1012.7 0.01 0 0.029
28 20:00 62.7 61.5 70.7 62.0 96 S 8 G 13 29.91 1012.9 0.01 0.01 0.01 0 0.029
28 19:00 62.2 60.8 95 S 6 G 14 29.92 1013.1 0.01 0 0.029
28 18:00 62.8 61.3 95 S 6 G 12 29.92 1013.1 0.01 0.01 7 0.028
28 17:00 63.4 61.3 93 S 6 G 13 29.92 1013.2 0.00 30 0.026
28 16:00 69.5 66.1 89 S 5 G 15 29.92 1013.3 0.00 100 0.021
28 15:00 67.4 65.3 93 S 8 G 17 29.93 1013.5 0.00 130 0.018
28 14:00 66.1 64.3 66.3 62.9 94 S 7 G 13 29.94 1014.0 0.00 269 0.013
28 13:00 65.7 64.2 95 S 8 G 15 29.95 1014.4 0.00 181 0.009
28 12:00 64.8 63.6 96 S 6 G 15 29.96 1014.6 0.00 167 0.006
28 11:00 63.5 62.3 96 S 6 G 11 29.96 1014.7 0.00 209 0.004
28 10:00 62.9 61.7 96 S 6 G 12 29.97 1014.9 0.00 74 0.002
28 09:00 64.2 63.0 96 S 7 G 15 29.96 1014.6 0.00 54 0.001
28 08:00 64.2 63.0 64.4 61.4 96 S 6 G 12 29.95 1014.4 0.00 47 0.000
28 07:00 61.5 60.3 96 SSE 5 G 10 29.96 1014.6 0.00 11 0.000
28 06:00 62.2 61.0 96 SSE 5 G 10 29.95 1014.2 0.00 0 0.000
28 05:00 62.9 61.7 96 S 2 G 7 29.96 1014.5 0.00 0 0.000
28 04:00 64.1 62.9 96 SSE 3 G 7 29.96 1014.7 0.00 0 0.000
28 03:00 64.0 62.5 95 S 4 G 11 29.97 1014.9 0.00 0 0.000
28 02:00 63.8 62.3 64.7 62.4 95 S 3 G 10 29.97 1015.0 0.00 0 0.000
28 01:00 63.0 61.5 95 SSW 1 G 7 29.98 1015.2 0.00 0 0.000
28 00:00 63.2 61.7 95 W 2 G 7 29.99 1015.4 0.00 0 0.042
27 23:00 62.5 61.0 95 S 3 G 8 29.98 1015.3 0.00 0 0.042
27 22:00 63.3 61.8 95 S 4 G 9 29.98 1015.1 0.00 0 0.042
27 21:00 63.7 62.2 95 S 3 G 8 29.97 1014.9 0.00 0 0.042
27 20:00 63.1 61.6 65.5 62.2 95 S 4 G 11 29.96 1014.7 0.00 0 0.042
27 19:00 63.5 62.0 95 S 2 G 5 29.95 1014.2 0.00 0 0.042
27 18:00 62.9 61.1 94 S 2 G 5 29.95 1014.3 0.00 14 0.041
27 17:00 62.8 60.7 93 S 3 G 11 29.95 1014.2 0.00 33 0.039
27 16:00 63.8 61.4 92 S 2 G 6 29.95 1014.4 0.00 102 0.036
27 15:00 64.4 62.0 92 S 5 G 12 29.97 1015.1 0.00 107 0.032
27 14:00 65.4 62.7 67.5 59.7 91 S 6 G 10 29.98 1015.2 0.00 104 0.027
27 13:00 66.5 62.8 88 S 3 G 11 30.00 1016.0 0.00 269 0.020
27 12:00 64.9 61.6 89 W 2 G 8 30.00 1016.1 0.00 360 0.012
27 11:00 63.2 61.7 95 WSW 2 G 11 30.01 1016.3 0.00 295 0.007
27 10:00 61.7 60.5 96 S 3 G 11 30.02 1016.7 0.00 204 0.003
27 09:00 60.2 59.3 97 SW 2 G 9 30.01 1016.3 0.00 153 0.001
27 08:00 60.4 59.5 60.7 57.4 97 WSW 2 G 8 30.00 1015.8 0.00 81 0.000
27 07:00 59.8 58.7 96 WSW 2 G 8 30.00 1015.9 0.00 16 0.000
27 06:00 60.3 59.2 96 WSW 2 G 7 30.00 1016.0 0.00 0 0.000
27 05:00 60.6 59.5 96 W 2 G 7 30.00 1015.9 0.00 0 0.000
27 04:00 59.0 57.9 96 W 0 G 2 30.00 1016.1 0.00 0 0.000
27 03:00 57.9 56.8 96 Calm 30.01 1016.3 0.00 0 0.000

Data generated by WxSolution Version 1.9.1.8, Build 2020.02.16.